Time;durP1;ratioP1;P1;durP2;ratioP2;P2;SDS_P1;SDS_P2;PMS_P1;PMS_P2;Temp;Humidity;BMP_temperature;BMP_pressure;BME280_temperature;BME280_humidity;BME280_pressure;Samples;Min_cycle;Max_cycle;Signal;HPM_P1;HPM_P2
2022/08/31 00:04:59;;;;;;;0.20;0.10;;;22.50;57.40;;;;;;5054480;28;20049;-67
2022/08/31 00:07:26;;;;;;;0.20;0.10;;;22.50;56.60;;;;;;5051999;28;20110;-67
2022/08/31 00:09:52;;;;;;;0.30;0.10;;;22.50;56.60;;;;;;5051441;28;20127;-67
2022/08/31 00:12:18;;;;;;;0.30;0.10;;;22.50;56.70;;;;;;5051592;28;20047;-67
2022/08/31 00:14:44;;;;;;;0.30;0.10;;;22.50;56.70;;;;;;5067998;28;20120;-67
2022/08/31 00:17:10;;;;;;;0.15;0.10;;;22.50;56.70;;;;;;5052400;28;20057;-67
2022/08/31 00:19:35;;;;;;;0.50;0.10;;;22.40;56.60;;;;;;5068213;28;20084;-67
2022/08/31 00:22:01;;;;;;;0.35;0.10;;;22.50;56.70;;;;;;5068188;28;20041;-67
2022/08/31 00:24:27;;;;;;;1.17;0.10;;;22.50;56.60;;;;;;5051508;28;20052;-68
2022/08/31 00:26:53;;;;;;;0.28;0.10;;;22.40;56.60;;;;;;5052510;28;20033;-67
2022/08/31 00:29:18;;;;;;;0.20;0.10;;;22.40;57.30;;;;;;5051318;28;20029;-68
2022/08/31 00:31:44;;;;;;;0.32;0.10;;;22.40;56.60;;;;;;5068031;28;20500;-67
2022/08/31 00:34:10;;;;;;;0.20;0.10;;;22.40;56.60;;;;;;5052500;28;20098;-67
2022/08/31 00:36:35;;;;;;;0.30;0.10;;;22.40;56.60;;;;;;5051000;28;20045;-68
2022/08/31 00:39:02;;;;;;;0.30;0.10;;;22.40;56.60;;;;;;5052213;28;20037;-67
2022/08/31 00:41:30;;;;;;;0.30;0.10;;;22.40;56.60;;;;;;5050982;28;20048;-68
2022/08/31 00:44:00;;;;;;;0.13;0.10;;;22.40;56.60;;;;;;5051035;28;20188;-68
2022/08/31 00:46:29;;;;;;;0.40;0.10;;;22.40;56.50;;;;;;5052170;28;20076;-68
2022/08/31 00:51:40;;;;;;;0.30;0.15;;;22.40;56.60;;;;;;5130349;27;20379;-66
2022/08/31 00:54:08;;;;;;;0.30;0.10;;;22.40;56.60;;;;;;5128981;28;20043;-66
2022/08/31 00:56:35;;;;;;;0.20;0.10;;;22.40;56.60;;;;;;5129123;28;20058;-66
2022/08/31 00:59:02;;;;;;;0.95;0.00;;;22.40;56.60;;;;;;5128889;28;20503;-66
2022/08/31 01:01:29;;;;;;;0.30;0.10;;;22.40;56.50;;;;;;5128859;28;20047;-66
2022/08/31 01:03:56;;;;;;;0.60;0.13;;;22.40;56.60;;;;;;5129274;28;20402;-66
2022/08/31 01:06:23;;;;;;;0.17;0.10;;;22.40;56.60;;;;;;5128624;28;20050;-66
2022/08/31 01:08:50;;;;;;;0.98;0.10;;;22.40;56.50;;;;;;5130060;27;20163;-66
2022/08/31 01:11:18;;;;;;;0.17;0.10;;;22.30;56.50;;;;;;5129820;27;20441;-66
2022/08/31 01:13:45;;;;;;;0.43;0.10;;;22.40;56.50;;;;;;5128707;28;20039;-66
2022/08/31 01:16:18;;;;;;;0.20;0.10;;;22.30;56.50;;;;;;5128557;28;20043;-66
2022/08/31 01:18:45;;;;;;;0.20;0.08;;;22.30;56.50;;;;;;5128667;28;20043;-66
2022/08/31 01:21:48;;;;;;;0.10;0.00;;;22.30;56.50;;;;;;5128432;28;20059;-66
2022/08/31 01:24:15;;;;;;;0.20;0.10;;;22.30;56.50;;;;;;5128510;28;20088;-67
2022/08/31 01:26:42;;;;;;;0.32;0.13;;;22.30;56.50;;;;;;5128580;28;20054;-66
2022/08/31 01:29:07;;;;;;;0.60;0.10;;;22.30;56.50;;;;;;5128243;28;20043;-66
2022/08/31 01:31:44;;;;;;;0.38;0.10;;;22.30;56.50;;;;;;5129529;28;20042;-66
2022/08/31 01:34:10;;;;;;;0.30;0.00;;;22.30;56.40;;;;;;5129594;27;20088;-66
2022/08/31 01:36:38;;;;;;;0.20;0.10;;;22.20;56.40;;;;;;5111341;28;20096;-66
2022/08/31 01:39:06;;;;;;;0.20;0.10;;;22.30;56.50;;;;;;5128466;28;20039;-66
2022/08/31 01:41:31;;;;;;;0.30;0.10;;;22.30;56.40;;;;;;5127954;28;20043;-66
2022/08/31 01:43:57;;;;;;;0.10;0.00;;;22.20;56.40;;;;;;5128059;28;20054;-66
2022/08/31 01:46:23;;;;;;;0.20;0.10;;;22.30;56.40;;;;;;5128101;28;20070;-66
2022/08/31 01:48:51;;;;;;;0.20;0.10;;;22.20;56.30;;;;;;5127942;28;20124;-66
2022/08/31 01:51:19;;;;;;;0.55;0.25;;;22.20;57.10;;;;;;5128817;27;20135;-66
2022/08/31 01:53:47;;;;;;;0.10;0.08;;;22.30;56.40;;;;;;5128067;28;20364;-67
2022/08/31 01:56:17;;;;;;;1.65;0.05;;;22.20;56.30;;;;;;5127814;28;20043;-66
2022/08/31 01:58:43;;;;;;;0.52;0.10;;;22.20;56.30;;;;;;5127903;28;20119;-66
2022/08/31 02:01:09;;;;;;;0.50;0.10;;;22.20;56.30;;;;;;5124098;28;20127;-66
2022/08/31 02:03:35;;;;;;;0.30;0.10;;;22.20;56.30;;;;;;5114204;28;20040;-66
2022/08/31 02:06:10;;;;;;;0.20;0.10;;;22.20;56.30;;;;;;5113830;28;20039;-66
2022/08/31 02:08:36;;;;;;;0.20;0.10;;;22.20;56.30;;;;;;5114185;28;20118;-66
2022/08/31 02:11:03;;;;;;;0.30;0.10;;;22.20;56.20;;;;;;5113822;28;20147;-66
2022/08/31 02:13:29;;;;;;;0.15;0.00;;;22.20;56.20;;;;;;5114045;28;20043;-66
2022/08/31 02:15:54;;;;;;;0.10;0.00;;;22.20;56.20;;;;;;5114095;28;20429;-67
2022/08/31 02:18:20;;;;;;;0.63;0.10;;;22.20;56.30;;;;;;5113967;28;20047;-66
2022/08/31 02:20:46;;;;;;;0.20;0.00;;;22.20;56.20;;;;;;5113933;28;20047;-66
2022/08/31 02:23:11;;;;;;;0.30;0.10;;;22.20;56.20;;;;;;5113534;28;20071;-66
2022/08/31 02:25:37;;;;;;;0.20;0.00;;;22.10;56.10;;;;;;5114888;28;20079;-66
2022/08/31 02:28:03;;;;;;;0.32;0.10;;;22.10;56.10;;;;;;5113729;28;20032;-66
2022/08/31 02:30:28;;;;;;;0.22;0.10;;;22.10;56.10;;;;;;5113424;28;20079;-66
2022/08/31 02:32:54;;;;;;;0.30;0.10;;;22.10;56.10;;;;;;5114690;28;20055;-67
2022/08/31 02:35:20;;;;;;;0.25;0.20;;;22.20;56.10;;;;;;5114629;28;20084;-66
2022/08/31 02:37:45;;;;;;;0.20;0.00;;;22.10;56.10;;;;;;5113624;28;20118;-66
2022/08/31 02:40:11;;;;;;;0.63;0.10;;;22.10;56.10;;;;;;5113562;28;20270;-67
2022/08/31 02:42:37;;;;;;;0.20;0.00;;;22.10;56.00;;;;;;5113258;28;20043;-66
2022/08/31 02:45:05;;;;;;;0.20;0.00;;;22.10;56.10;;;;;;5113474;28;20035;-67
2022/08/31 02:47:30;;;;;;;0.20;0.10;;;22.10;56.00;;;;;;5113205;28;20043;-66
2022/08/31 02:49:57;;;;;;;0.30;0.10;;;22.10;56.00;;;;;;5112703;28;20066;-66
2022/08/31 02:52:23;;;;;;;0.22;0.00;;;22.10;56.00;;;;;;5114240;28;20050;-68
2022/08/31 02:54:49;;;;;;;0.38;0.05;;;22.10;56.00;;;;;;5112924;28;20501;-66
2022/08/31 02:57:14;;;;;;;0.30;0.10;;;22.10;56.00;;;;;;5113214;28;20122;-66
2022/08/31 02:59:40;;;;;;;0.10;0.00;;;22.10;56.00;;;;;;5112861;28;20453;-66
2022/08/31 03:02:05;;;;;;;0.10;0.00;;;22.00;56.00;;;;;;5112961;28;20048;-66
2022/08/31 03:04:31;;;;;;;0.20;0.00;;;22.00;56.00;;;;;;5112761;28;20071;-66
2022/08/31 03:06:57;;;;;;;0.20;0.03;;;22.00;55.90;;;;;;5112635;28;20047;-66
2022/08/31 03:09:23;;;;;;;0.17;0.15;;;22.00;55.90;;;;;;5112539;28;20044;-67
2022/08/31 03:11:49;;;;;;;0.20;0.00;;;22.00;55.90;;;;;;5112694;28;20074;-66
2022/08/31 03:14:17;;;;;;;0.32;0.10;;;22.00;55.90;;;;;;5111827;28;20063;-66
2022/08/31 03:16:44;;;;;;;0.30;0.10;;;22.00;55.90;;;;;;5113896;28;20031;-67
2022/08/31 03:19:10;;;;;;;0.30;0.00;;;22.00;55.90;;;;;;5112797;28;20044;-66
2022/08/31 03:21:36;;;;;;;0.30;0.10;;;22.00;55.90;;;;;;5112381;28;20411;-66
2022/08/31 03:24:02;;;;;;;1.30;0.10;;;22.00;55.90;;;;;;5112880;28;20123;-67
2022/08/31 03:26:28;;;;;;;0.30;0.00;;;22.00;55.90;;;;;;5113828;28;20046;-66
2022/08/31 03:28:54;;;;;;;0.63;0.00;;;22.00;55.90;;;;;;5095345;28;20480;-67
2022/08/31 03:31:21;;;;;;;0.10;0.00;;;22.00;55.90;;;;;;5113469;28;20055;-66
2022/08/31 03:33:47;;;;;;;0.10;0.00;;;22.00;55.90;;;;;;5112227;28;20110;-66
2022/08/31 03:36:14;;;;;;;1.10;0.10;;;21.90;55.90;;;;;;5112166;28;20169;-66
2022/08/31 03:38:40;;;;;;;0.20;0.00;;;21.90;55.80;;;;;;5113429;28;20068;-66
2022/08/31 03:41:06;;;;;;;0.10;0.00;;;21.90;55.80;;;;;;5112315;28;20127;-66
2022/08/31 03:43:31;;;;;;;0.30;0.03;;;21.90;55.80;;;;;;5112384;28;20119;-67
2022/08/31 03:45:57;;;;;;;1.30;0.10;;;21.90;55.80;;;;;;5111925;28;20054;-66
2022/08/31 03:48:23;;;;;;;0.10;0.00;;;21.90;55.80;;;;;;5112042;28;20046;-67
2022/08/31 03:50:48;;;;;;;0.10;0.03;;;21.90;55.80;;;;;;5111654;28;20058;-67
2022/08/31 03:53:14;;;;;;;0.20;0.10;;;21.90;55.80;;;;;;5111822;28;20047;-67
2022/08/31 03:55:41;;;;;;;0.30;0.05;;;21.90;55.80;;;;;;5112036;28;20118;-66
2022/08/31 03:58:08;;;;;;;0.32;0.30;;;21.90;55.70;;;;;;5113230;28;20039;-66
2022/08/31 04:00:34;;;;;;;0.10;0.00;;;21.90;55.70;;;;;;5112954;28;20540;-66
2022/08/31 04:03:00;;;;;;;0.50;0.10;;;21.90;55.80;;;;;;5113048;28;20119;-66
2022/08/31 04:05:28;;;;;;;0.20;0.03;;;21.80;55.70;;;;;;5111564;28;20491;-66
2022/08/31 04:07:53;;;;;;;0.32;0.10;;;21.90;55.70;;;;;;5111416;28;20487;-66
2022/08/31 04:10:19;;;;;;;0.20;0.00;;;21.90;55.70;;;;;;5111579;28;20039;-67
2022/08/31 04:12:49;;;;;;;0.20;0.08;;;21.80;55.70;;;;;;5112700;28;20035;-66
2022/08/31 04:15:14;;;;;;;0.38;0.00;;;21.80;55.70;;;;;;5111803;28;20419;-66
2022/08/31 04:17:42;;;;;;;0.73;0.00;;;21.80;55.70;;;;;;5111569;28;20084;-66
2022/08/31 04:20:08;;;;;;;0.22;0.00;;;21.80;55.70;;;;;;5112753;28;20096;-66
2022/08/31 04:22:33;;;;;;;0.85;0.00;;;21.80;55.70;;;;;;5111402;28;20035;-68
2022/08/31 04:24:59;;;;;;;0.20;0.10;;;21.80;55.70;;;;;;5112372;28;20467;-67
2022/08/31 04:27:25;;;;;;;0.20;0.00;;;21.80;55.60;;;;;;5111250;28;20530;-67
2022/08/31 04:29:50;;;;;;;0.20;0.10;;;21.80;55.60;;;;;;5111156;28;20047;-67
2022/08/31 04:32:16;;;;;;;0.10;0.00;;;21.80;55.60;;;;;;5111212;28;20168;-67
2022/08/31 04:34:42;;;;;;;0.43;0.00;;;21.80;55.60;;;;;;5111499;28;20035;-66
2022/08/31 04:37:09;;;;;;;0.10;0.00;;;21.80;55.70;;;;;;5111288;28;20088;-67
2022/08/31 04:39:34;;;;;;;0.32;0.10;;;21.80;55.60;;;;;;5111175;28;20039;-67
2022/08/31 04:42:00;;;;;;;0.30;0.10;;;21.80;55.60;;;;;;5111225;28;20118;-66
2022/08/31 04:44:26;;;;;;;0.10;0.00;;;21.80;55.60;;;;;;5112553;28;20039;-67
2022/08/31 04:46:52;;;;;;;0.30;0.10;;;21.80;55.60;;;;;;5111317;28;20495;-67
2022/08/31 04:49:18;;;;;;;0.13;0.10;;;21.80;55.60;;;;;;5111095;28;20036;-67
2022/08/31 04:51:43;;;;;;;0.10;0.00;;;21.80;55.60;;;;;;5111014;28;20491;-66
2022/08/31 04:54:11;;;;;;;0.88;0.10;;;21.70;55.50;;;;;;5112155;28;20036;-67
2022/08/31 04:56:41;;;;;;;0.20;0.00;;;21.70;55.50;;;;;;5112366;28;20304;-67
2022/08/31 04:59:13;;;;;;;0.20;0.00;;;21.70;55.50;;;;;;5111266;28;20070;-67
2022/08/31 05:01:43;;;;;;;0.20;0.00;;;21.70;55.50;;;;;;5111265;28;20483;-66
2022/08/31 05:04:11;;;;;;;0.10;0.00;;;21.70;55.50;;;;;;5111251;28;20398;-66
2022/08/31 05:06:40;;;;;;;1.05;0.00;;;21.70;55.50;;;;;;5111013;28;20558;-67
2022/08/31 05:09:10;;;;;;;0.15;0.03;;;21.70;55.50;;;;;;5110812;28;20090;-67
2022/08/31 05:11:36;;;;;;;0.47;0.13;;;21.70;55.40;;;;;;5110958;28;20118;-67
2022/08/31 05:14:04;;;;;;;0.03;0.00;;;21.70;55.50;;;;;;5112099;28;20447;-66
2022/08/31 05:16:30;;;;;;;0.40;0.20;;;21.70;55.40;;;;;;5112095;28;20046;-67
2022/08/31 05:18:57;;;;;;;0.10;0.00;;;21.70;55.50;;;;;;5110999;28;20039;-67
2022/08/31 05:21:27;;;;;;;0.10;0.00;;;21.70;55.40;;;;;;5110679;28;20511;-66
2022/08/31 05:23:55;;;;;;;0.10;0.00;;;21.70;55.40;;;;;;5110680;28;20036;-67
2022/08/31 05:26:24;;;;;;;0.08;0.00;;;21.70;55.40;;;;;;5112166;28;20088;-67
2022/08/31 05:28:50;;;;;;;0.20;0.10;;;21.60;55.40;;;;;;5111915;28;20399;-66
2022/08/31 05:31:16;;;;;;;0.22;0.05;;;21.60;55.30;;;;;;5110573;28;20050;-67
2022/08/31 05:33:43;;;;;;;0.98;0.08;;;21.60;55.30;;;;;;5108770;28;20475;-65
2022/08/31 05:36:10;;;;;;;1.17;0.05;;;21.60;55.30;;;;;;5111130;28;20410;-64
2022/08/31 05:38:37;;;;;;;4.53;0.10;;;21.60;55.10;;;;;;5113035;28;20050;-62
2022/08/31 05:41:04;;;;;;;1.63;0.08;;;21.60;54.70;;;;;;5114131;28;20044;-62
2022/08/31 05:43:31;;;;;;;1.13;0.10;;;21.60;54.50;;;;;;5112627;28;20035;-63
2022/08/31 05:45:57;;;;;;;1.30;0.10;;;21.60;54.20;;;;;;5110689;28;20043;-63
2022/08/31 05:48:23;;;;;;;0.95;0.00;;;21.60;54.10;;;;;;5110981;28;20436;-63
2022/08/31 05:50:49;;;;;;;2.42;0.10;;;21.60;53.80;;;;;;5092501;28;20036;-64
2022/08/31 05:53:15;;;;;;;2.65;0.00;;;21.60;53.60;;;;;;5112790;28;20372;-64
2022/08/31 05:55:41;;;;;;;3.55;0.10;;;21.60;53.50;;;;;;5111489;28;20041;-61
2022/08/31 05:58:07;;;;;;;4.47;0.10;;;21.60;53.40;;;;;;5113867;28;20032;-62
2022/08/31 06:00:33;;;;;;;1.00;0.03;;;21.60;53.90;;;;;;5111603;28;20047;-62
2022/08/31 06:02:58;;;;;;;2.00;0.10;;;21.60;53.00;;;;;;5113007;28;20023;-61
2022/08/31 06:05:24;;;;;;;4.07;0.00;;;21.70;52.60;;;;;;5110382;28;20050;-63
2022/08/31 06:07:50;;;;;;;1.88;0.08;;;21.70;52.50;;;;;;5110412;28;20048;-65
2022/08/31 06:10:17;;;;;;;1.45;0.00;;;21.60;52.60;;;;;;5100226;28;20036;-62
2022/08/31 06:12:43;;;;;;;1.45;0.00;;;21.70;52.70;;;;;;5095811;28;20556;-62
2022/08/31 06:15:10;;;;;;;0.20;0.00;;;21.70;52.40;;;;;;5098266;28;20096;-62
2022/08/31 06:17:36;;;;;;;0.35;0.00;;;21.70;52.10;;;;;;5088757;28;20119;-63
2022/08/31 06:20:04;;;;;;;0.85;0.00;;;21.70;52.00;;;;;;5079852;27;20071;-62
2022/08/31 06:22:32;;;;;;;1.05;0.00;;;21.70;52.60;;;;;;5092073;28;20052;-62
2022/08/31 06:24:58;;;;;;;0.55;0.00;;;21.70;51.80;;;;;;5094539;27;20078;-63
2022/08/31 06:27:26;;;;;;;0.30;0.00;;;21.70;51.70;;;;;;5091397;28;20046;-63
2022/08/31 06:29:52;;;;;;;1.95;0.10;;;21.70;52.70;;;;;;5095243;27;20036;-62
2022/08/31 06:32:18;;;;;;;2.72;0.10;;;21.70;51.90;;;;;;5089253;27;21007;-62
2022/08/31 06:34:44;;;;;;;2.83;0.10;;;21.70;51.90;;;;;;5092828;28;20036;-65
2022/08/31 06:37:11;;;;;;;2.90;0.10;;;21.70;52.00;;;;;;5093018;27;20036;-65
2022/08/31 06:39:37;;;;;;;4.07;0.10;;;21.70;52.10;;;;;;5094112;28;20043;-65
2022/08/31 06:42:03;;;;;;;8.60;0.30;;;21.70;52.30;;;;;;5091867;27;20120;-66
2022/08/31 06:44:29;;;;;;;4.22;0.20;;;21.80;52.50;;;;;;5094199;28;20040;-66
2022/08/31 06:46:54;;;;;;;4.95;0.20;;;21.80;52.60;;;;;;5094696;28;20374;-65
2022/08/31 06:49:21;;;;;;;5.70;0.20;;;21.80;52.60;;;;;;5093543;28;20048;-68
2022/08/31 06:51:48;;;;;;;4.10;0.10;;;21.80;52.60;;;;;;5097502;28;20142;-67
2022/08/31 06:54:15;;;;;;;6.38;0.55;;;21.80;52.60;;;;;;5101180;28;20075;-66
2022/08/31 06:56:41;;;;;;;7.72;0.38;;;21.80;52.70;;;;;;5097274;28;20062;-66
2022/08/31 06:59:07;;;;;;;8.38;0.63;;;21.80;52.70;;;;;;5102953;27;20502;-66
2022/08/31 07:01:35;;;;;;;8.88;0.50;;;21.80;52.70;;;;;;5095392;27;20043;-66
2022/08/31 07:04:04;;;;;;;8.70;0.90;;;21.80;53.30;;;;;;5086582;28;20040;-66
2022/08/31 07:06:34;;;;;;;15.05;0.98;;;21.80;52.60;;;;;;5093439;27;20035;-66
2022/08/31 07:09:02;;;;;;;11.35;0.55;;;21.80;52.60;;;;;;5093543;28;20082;-66
2022/08/31 07:11:40;;;;;;;15.35;1.48;;;21.80;52.70;;;;;;5093285;28;20339;-66
2022/08/31 07:14:11;;;;;;;10.00;0.77;;;21.80;52.60;;;;;;5092356;28;20044;-66
2022/08/31 07:16:37;;;;;;;12.35;0.43;;;21.80;52.60;;;;;;5090221;28;20032;-64
2022/08/31 07:19:05;;;;;;;12.57;0.57;;;21.80;52.50;;;;;;5093505;28;20887;-64
2022/08/31 07:21:35;;;;;;;3.45;0.50;;;21.80;52.50;;;;;;5093768;28;20062;-65
2022/08/31 07:24:04;;;;;;;6.90;0.47;;;21.90;52.60;;;;;;5096918;27;20036;-65
2022/08/31 07:26:35;;;;;;;10.02;0.45;;;21.90;52.60;;;;;;5092150;28;20032;-66
2022/08/31 07:29:05;;;;;;;6.72;0.25;;;21.90;52.50;;;;;;5098026;28;20079;-66
2022/08/31 07:31:43;;;;;;;6.07;0.20;;;21.90;52.50;;;;;;5106730;27;20049;-65
2022/08/31 07:34:10;;;;;;;5.30;0.32;;;21.90;52.40;;;;;;5094610;27;20534;-65
2022/08/31 07:42:08;;;;;;;2.92;0.20;;;21.90;52.50;;;;;;5096924;28;20059;-65
2022/08/31 07:42:11;;;;;;;7.88;0.60;;;21.90;52.60;;;;;;5109546;27;20552;-65
2022/08/31 07:44:40;;;;;;;1.98;0.30;;;21.90;52.40;;;;;;5093315;28;20044;-65
2022/08/31 07:47:10;;;;;;;1.65;0.20;;;21.90;52.40;;;;;;5088432;28;20075;-65
2022/08/31 07:49:38;;;;;;;4.78;0.30;;;21.90;52.70;;;;;;5108075;27;20043;-63
2022/08/31 07:52:04;;;;;;;4.00;0.30;;;21.90;52.90;;;;;;5102825;28;20118;-63
2022/08/31 07:54:31;;;;;;;4.53;0.80;;;21.90;52.70;;;;;;5090794;28;20131;-63
2022/08/31 07:57:02;;;;;;;2.67;0.43;;;21.90;52.70;;;;;;5093338;27;20046;-64
2022/08/31 07:59:29;;;;;;;4.97;0.32;;;21.90;52.60;;;;;;5092575;27;20548;-63
2022/08/31 08:01:55;;;;;;;2.72;0.57;;;21.90;52.50;;;;;;5090422;28;20080;-63
2022/08/31 08:04:24;;;;;;;2.60;0.10;;;21.90;52.50;;;;;;5105723;27;20127;-67
2022/08/31 08:06:54;;;;;;;1.67;0.10;;;21.90;52.50;;;;;;5095477;28;20093;-66
2022/08/31 08:09:22;;;;;;;4.40;0.10;;;21.90;52.40;;;;;;5091979;28;20472;-63
2022/08/31 08:11:53;;;;;;;1.45;0.10;;;21.90;52.40;;;;;;5091992;28;20097;-63
2022/08/31 08:14:20;;;;;;;5.28;0.20;;;21.90;52.40;;;;;;5102154;28;20040;-63
2022/08/31 08:16:46;;;;;;;3.88;0.20;;;21.90;52.40;;;;;;5093947;28;20105;-63
2022/08/31 08:19:12;;;;;;;5.72;0.20;;;21.90;52.50;;;;;;5085013;28;20050;-63
2022/08/31 08:21:38;;;;;;;1.95;0.57;;;21.90;52.40;;;;;;5107566;27;20051;-63
2022/08/31 08:24:04;;;;;;;1.60;0.10;;;21.90;52.40;;;;;;5109734;27;20190;-63
2022/08/31 08:26:30;;;;;;;3.78;0.22;;;21.90;52.40;;;;;;5109375;27;20559;-63
2022/08/31 08:28:56;;;;;;;2.20;0.10;;;21.90;52.40;;;;;;5109281;27;20131;-63
2022/08/31 08:31:22;;;;;;;1.90;0.10;;;21.90;52.50;;;;;;5092017;27;20048;-64
2022/08/31 08:33:49;;;;;;;0.90;0.13;;;21.90;52.40;;;;;;5088875;28;20071;-64
2022/08/31 08:36:17;;;;;;;7.22;0.20;;;21.90;52.50;;;;;;5086178;28;20040;-64
2022/08/31 08:38:46;;;;;;;5.00;0.30;;;21.90;52.80;;;;;;5088253;28;20048;-64
2022/08/31 08:41:19;;;;;;;4.18;0.10;;;21.90;53.10;;;;;;5091974;28;20032;-65
2022/08/31 08:43:49;;;;;;;1.70;0.17;;;21.90;53.50;;;;;;5091653;28;20067;-66
2022/08/31 08:46:18;;;;;;;1.08;0.10;;;22.00;53.80;;;;;;5093717;28;20239;-64
2022/08/31 08:48:46;;;;;;;3.05;0.20;;;22.00;53.80;;;;;;5105865;27;20048;-66
2022/08/31 08:51:16;;;;;;;1.85;0.20;;;22.00;53.90;;;;;;5092179;28;20055;-66
2022/08/31 08:53:44;;;;;;;0.93;0.10;;;22.00;54.20;;;;;;5086254;28;20040;-67
2022/08/31 08:56:11;;;;;;;2.63;0.25;;;22.10;54.40;;;;;;5093136;28;20296;-66
2022/08/31 08:58:41;;;;;;;3.22;0.20;;;22.00;54.40;;;;;;5084543;28;20089;-66
2022/08/31 09:01:10;;;;;;;;;;;22.00;54.10;;;;;;5086716;28;20043;-66
2022/08/31 09:07:10;;;;;;;3.20;0.30;;;22.10;53.70;;;;;;5085132;27;20380;-65
2022/08/31 09:15:35;;;;;;;4.63;0.20;;;22.10;53.50;;;;;;5052071;28;20711;-66
2022/08/31 09:18:40;;;;;;;2.05;0.10;;;22.10;53.30;;;;;;5064878;28;20048;-66
2022/08/31 09:23:51;;;;;;;4.80;0.20;;;22.10;53.30;;;;;;5104741;27;20400;-64
2022/08/31 09:26:19;;;;;;;5.85;0.10;;;22.20;53.40;;;;;;5097834;28;20432;-64
2022/08/31 09:28:49;;;;;;;3.45;0.10;;;22.20;53.30;;;;;;5102936;27;20039;-64
2022/08/31 09:31:37;;;;;;;1.38;0.10;;;22.20;53.20;;;;;;5105079;27;20150;-64
2022/08/31 09:34:11;;;;;;;1.27;0.10;;;22.20;53.10;;;;;;5107043;27;20040;-65
2022/08/31 09:36:39;;;;;;;0.57;0.00;;;22.20;53.00;;;;;;5124646;27;20062;-65
2022/08/31 09:39:29;;;;;;;1.10;0.10;;;22.20;52.90;;;;;;5112899;27;20553;-65
2022/08/31 09:42:11;;;;;;;1.75;0.13;;;22.20;52.90;;;;;;5116079;27;20055;-64
2022/08/31 09:44:40;;;;;;;4.28;0.10;;;22.30;52.80;;;;;;5125929;27;20044;-64
2022/08/31 09:47:39;;;;;;;1.60;0.10;;;22.30;52.50;;;;;;5126593;27;20059;-65
2022/08/31 09:50:08;;;;;;;1.65;0.10;;;22.30;52.40;;;;;;5112118;27;20043;-64
2022/08/31 09:55:24;;;;;;;1.52;0.10;;;22.40;52.10;;;;;;5112052;27;20054;-64
2022/08/31 09:58:06;;;;;;;2.65;0.20;;;22.40;52.00;;;;;;5109706;27;20043;-64
2022/08/31 10:00:38;;;;;;;3.50;0.40;;;22.40;51.90;;;;;;5103080;27;20046;-65
2022/08/31 10:03:10;;;;;;;2.92;0.10;;;22.50;51.90;;;;;;5108333;27;20040;-63
2022/08/31 10:05:39;;;;;;;1.73;0.10;;;22.40;51.60;;;;;;5090186;27;20032;-65
2022/08/31 10:08:14;;;;;;;1.05;0.10;;;22.50;51.60;;;;;;5110391;27;20571;-67
2022/08/31 10:10:43;;;;;;;2.10;0.20;;;22.50;51.40;;;;;;5121349;27;20028;-66
2022/08/31 10:16:00;;;;;;;2.45;0.10;;;22.60;52.40;;;;;;5120828;27;20354;-67
2022/08/31 10:18:38;;;;;;;1.80;0.13;;;22.60;51.80;;;;;;5093971;28;20036;-65
2022/08/31 10:21:11;;;;;;;1.80;0.10;;;22.70;51.70;;;;;;5087916;28;20035;-67
2022/08/31 10:23:53;;;;;;;5.43;0.20;;;22.70;51.60;;;;;;5097100;28;20132;-66
2022/08/31 10:26:30;;;;;;;3.70;0.20;;;22.70;51.50;;;;;;5085075;28;20040;-67
2022/08/31 10:28:58;;;;;;;4.05;0.50;;;22.70;51.50;;;;;;5089274;28;20463;-65
2022/08/31 10:31:32;;;;;;;1.40;0.10;;;22.70;51.40;;;;;;5093010;28;20074;-66
2022/08/31 10:37:02;;;;;;;1.00;0.30;;;22.70;51.20;;;;;;5088766;28;20135;-66
2022/08/31 10:42:28;;;;;;;1.42;0.10;;;22.70;51.20;;;;;;5113167;27;20403;-66
2022/08/31 10:45:08;;;;;;;1.40;0.15;;;22.70;51.20;;;;;;5122692;27;20035;-66
2022/08/31 10:47:40;;;;;;;4.50;0.15;;;22.70;51.10;;;;;;5097756;28;20125;-66
2022/08/31 10:50:09;;;;;;;3.45;0.10;;;22.70;51.10;;;;;;5097201;28;20048;-66
2022/08/31 10:55:36;;;;;;;1.27;0.10;;;22.70;50.90;;;;;;5084663;27;20386;-65
2022/08/31 10:58:41;;;;;;;3.97;0.15;;;22.70;51.00;;;;;;5063849;28;20055;-65
2022/08/31 11:01:21;;;;;;;0.82;0.10;;;22.70;50.90;;;;;;5064815;28;20065;-65
2022/08/31 11:06:38;;;;;;;0.43;0.10;;;22.80;51.00;;;;;;5074798;28;20434;-64
2022/08/31 11:09:14;;;;;;;2.58;0.20;;;22.80;51.20;;;;;;5076134;28;20555;-64
2022/08/31 11:11:45;;;;;;;2.88;0.10;;;22.90;51.20;;;;;;5058400;28;20037;-64
2022/08/31 11:17:18;;;;;;;1.85;0.10;;;22.90;51.00;;;;;;5062088;28;20411;-64
2022/08/31 11:20:16;;;;;;;0.30;0.10;;;22.90;50.50;;;;;;5062688;28;20123;-64
2022/08/31 11:28:47;;;;;;;0.90;0.10;;;22.80;49.30;;;;;;5101241;27;20106;-65
2022/08/31 11:31:22;;;;;;;1.58;0.10;;;22.80;49.70;;;;;;5088617;28;20047;-65
2022/08/31 11:33:52;;;;;;;1.20;0.10;;;22.80;49.80;;;;;;5074806;28;20024;-64
2022/08/31 11:36:38;;;;;;;;;;;22.80;50.00;;;;;;5082652;28;20047;-64
2022/08/31 11:41:48;;;;;;;3.75;0.40;;;22.80;50.10;;;;;;5103736;27;20462;-64
2022/08/31 11:47:13;;;;;;;0.45;0.10;;;22.90;50.00;;;;;;5126116;27;20897;-64
2022/08/31 11:49:49;;;;;;;1.98;0.20;;;22.90;49.70;;;;;;5125104;28;20034;-63
2022/08/31 11:55:21;;;;;;;0.45;0.10;;;22.90;49.20;;;;;;5138460;27;1211425;-64
2022/08/31 12:01:01;;;;;;;0.45;0.20;;;22.90;48.90;;;;;;5124776;27;20399;-64
2022/08/31 12:09:40;;;;;;;1.83;0.10;;;22.90;49.10;;;;;;5147859;27;20550;-63
2022/08/31 12:18:29;;;;;;;1.75;0.00;;;23.00;49.00;;;;;;5126170;27;20893;-64
2022/08/31 12:29:29;;;;;;;5.47;0.57;;;23.10;49.00;;;;;;5126609;27;20415;-64
2022/08/31 12:35:30;;;;;;;1.13;0.10;;;23.10;48.60;;;;;;5105492;27;20408;-65
2022/08/31 12:40:43;;;;;;;1.75;0.28;;;23.10;48.50;;;;;;5083657;27;20417;-65
2022/08/31 12:43:18;;;;;;;11.23;0.32;;;23.10;48.40;;;;;;5082705;28;20036;-67
2022/08/31 12:48:54;;;;;;;6.15;0.60;;;23.10;48.60;;;;;;5086575;27;20360;-63
2022/08/31 12:51:39;;;;;;;5.80;0.95;;;23.10;48.90;;;;;;5084641;28;20599;-65
2022/08/31 12:54:35;;;;;;;7.15;0.40;;;23.10;49.00;;;;;;5078524;28;20077;-65
2022/08/31 13:02:41;;;;;;;2.15;0.20;;;23.10;49.20;;;;;;5076262;27;20413;-62
2022/08/31 13:08:21;;;;;;;1.30;0.10;;;23.10;48.20;;;;;;5119835;27;1154167;-65
2022/08/31 13:10:47;;;;;;;2.15;0.10;;;23.10;48.30;;;;;;5117905;27;20280;-63
2022/08/31 13:13:27;;;;;;;1.23;0.20;;;23.10;48.50;;;;;;5118372;27;20524;-63
2022/08/31 13:16:03;;;;;;;1.07;0.37;;;23.10;48.50;;;;;;5109398;27;20053;-62
2022/08/31 13:18:29;;;;;;;1.40;0.10;;;23.20;48.50;;;;;;5117962;27;20050;-63
2022/08/31 13:21:04;;;;;;;3.45;0.20;;;23.20;48.40;;;;;;5117855;27;20039;-64
2022/08/31 13:23:36;;;;;;;1.10;0.13;;;23.20;48.20;;;;;;5122226;27;20066;-63
2022/08/31 13:31:31;;;;;;;2.03;0.10;;;23.20;48.10;;;;;;5110012;27;20391;-63
2022/08/31 13:33:59;;;;;;;1.60;0.15;;;23.30;48.20;;;;;;5088645;28;20664;-63
2022/08/31 13:36:32;;;;;;;1.15;0.30;;;23.30;48.10;;;;;;5095666;28;20813;-63
2022/08/31 13:39:02;;;;;;;1.45;0.10;;;23.30;47.90;;;;;;5092169;28;20040;-64
2022/08/31 13:44:12;;;;;;;8.75;0.10;;;23.40;47.90;;;;;;5060854;28;20584;-62
2022/08/31 13:46:46;;;;;;;0.90;0.10;;;23.30;47.70;;;;;;5056334;28;20037;-62
2022/08/31 13:49:35;;;;;;;3.95;0.10;;;23.40;47.80;;;;;;5034332;28;20044;-65
2022/08/31 13:52:05;;;;;;;11.82;0.43;;;23.30;47.60;;;;;;5034413;28;20049;-64
2022/08/31 13:54:34;;;;;;;3.58;0.10;;;23.30;47.70;;;;;;5037517;28;20064;-64
2022/08/31 13:57:21;;;;;;;5.15;0.20;;;23.20;47.90;;;;;;5036308;28;20092;-64
2022/08/31 13:59:47;;;;;;;1.98;0.10;;;23.20;47.90;;;;;;5038200;28;20033;-64
2022/08/31 14:04:59;;;;;;;3.13;0.10;;;23.20;48.00;;;;;;5062838;28;20414;-64
2022/08/31 14:18:27;;;;;;;1.75;0.68;;;23.00;48.20;;;;;;5098352;27;20794;-64
2022/08/31 14:21:16;;;;;;;2.60;0.10;;;23.00;48.20;;;;;;5094752;28;20070;-64
2022/08/31 14:24:00;;;;;;;0.63;0.10;;;23.00;48.30;;;;;;5078086;28;20067;-64
2022/08/31 14:26:28;;;;;;;1.40;0.10;;;23.00;48.40;;;;;;5079540;28;20510;-64
2022/08/31 14:28:59;;;;;;;1.50;0.10;;;23.00;48.60;;;;;;5097254;28;20054;-64
2022/08/31 14:31:27;;;;;;;;;;;22.90;48.50;;;;;;5097014;28;20085;-64
2022/08/31 14:36:51;;;;;;;2.08;0.10;;;22.90;48.70;;;;;;5103823;27;20416;-64
2022/08/31 14:39:18;;;;;;;2.08;0.65;;;22.90;48.70;;;;;;5095093;28;20702;-64
2022/08/31 14:41:44;;;;;;;1.25;0.10;;;22.90;48.70;;;;;;5095806;28;20434;-64
2022/08/31 14:44:12;;;;;;;1.70;0.20;;;22.90;48.80;;;;;;5095334;28;20043;-64
2022/08/31 14:46:40;;;;;;;1.27;0.10;;;22.90;48.80;;;;;;5096602;28;20040;-64
2022/08/31 14:49:07;;;;;;;0.57;0.10;;;22.90;48.80;;;;;;5095635;28;20047;-64
2022/08/31 14:51:37;;;;;;;0.30;0.10;;;22.90;48.80;;;;;;5095886;28;20524;-64
2022/08/31 14:54:05;;;;;;;1.50;0.20;;;22.90;48.90;;;;;;5095773;28;20587;-64
2022/08/31 14:56:32;;;;;;;0.68;0.00;;;22.90;48.90;;;;;;5096111;28;20377;-66
2022/08/31 14:59:02;;;;;;;0.75;0.17;;;22.90;48.90;;;;;;5095909;28;20381;-64
2022/08/31 15:01:29;;;;;;;0.30;0.10;;;22.90;48.90;;;;;;5101872;28;20044;-64